Terminal Aerodrome Forecast
Issued by NWS

Current Version | Previous Version | Text Only | Print | Product List | Glossary On
Versions: 1 2 3 4 5 6 7 8 9 10 11 12 13 14 15
000
FTUS41 KLWX 181121
TAFMTN
TAF
KMTN 181121Z 1812/1912 19004KT P6SM BKN200 WS020/21040KT
     FM181600 17008KT P6SM VCSH OVC100
     FM182300 18010G20KT P6SM OVC080
     FM190500 20013G23KT P6SM -SHRA OVC070
     FM190700 20015G26KT P6SM -SHRA OVC030=

USA.gov is the U.S. government's official web portal to all federal, state and local government web resources and services.